sensor_id;sensor_type;location;lat;lon;timestamp;P1;durP1;ratioP1;P2;durP2;ratioP2
13197;SDS011;6664;52.514;13.440;2022-07-29T00:01:39;2.80;;;1.80;;
13197;SDS011;6664;52.514;13.440;2022-07-29T00:04:07;2.93;;;2.03;;
13197;SDS011;6664;52.514;13.440;2022-07-29T00:06:39;2.50;;;2.23;;
13197;SDS011;6664;52.514;13.440;2022-07-29T00:09:06;3.83;;;2.50;;
13197;SDS011;6664;52.514;13.440;2022-07-29T00:11:33;3.03;;;2.30;;
13197;SDS011;6664;52.514;13.440;2022-07-29T00:14:00;2.97;;;2.57;;
13197;SDS011;6664;52.514;13.440;2022-07-29T00:16:27;6.00;;;2.20;;
13197;SDS011;6664;52.514;13.440;2022-07-29T00:18:54;2.23;;;2.13;;
13197;SDS011;6664;52.514;13.440;2022-07-29T00:21:21;2.90;;;2.70;;
13197;SDS011;6664;52.514;13.440;2022-07-29T00:23:48;4.37;;;2.23;;
13197;SDS011;6664;52.514;13.440;2022-07-29T00:26:17;3.60;;;2.67;;
13197;SDS011;6664;52.514;13.440;2022-07-29T00:28:44;2.10;;;2.00;;
13197;SDS011;6664;52.514;13.440;2022-07-29T00:31:11;2.30;;;2.10;;
13197;SDS011;6664;52.514;13.440;2022-07-29T00:33:38;9.73;;;2.33;;
13197;SDS011;6664;52.514;13.440;2022-07-29T00:36:07;3.73;;;2.40;;
13197;SDS011;6664;52.514;13.440;2022-07-29T00:38:37;5.30;;;2.50;;
13197;SDS011;6664;52.514;13.440;2022-07-29T00:41:03;2.50;;;2.30;;
13197;SDS011;6664;52.514;13.440;2022-07-29T00:43:30;8.30;;;2.80;;
13197;SDS011;6664;52.514;13.440;2022-07-29T00:45:57;2.87;;;2.43;;
13197;SDS011;6664;52.514;13.440;2022-07-29T00:48:24;3.97;;;2.90;;
13197;SDS011;6664;52.514;13.440;2022-07-29T00:50:51;3.93;;;2.90;;
13197;SDS011;6664;52.514;13.440;2022-07-29T00:53:20;4.93;;;2.10;;
13197;SDS011;6664;52.514;13.440;2022-07-29T00:55:52;5.20;;;2.37;;
13197;SDS011;6664;52.514;13.440;2022-07-29T00:58:21;3.20;;;2.20;;
13197;SDS011;6664;52.514;13.440;2022-07-29T01:00:49;3.10;;;2.23;;
13197;SDS011;6664;52.514;13.440;2022-07-29T01:03:16;4.30;;;3.00;;
13197;SDS011;6664;52.514;13.440;2022-07-29T01:05:44;13.03;;;3.10;;
13197;SDS011;6664;52.514;13.440;2022-07-29T01:08:16;4.87;;;3.10;;
13197;SDS011;6664;52.514;13.440;2022-07-29T01:10:44;6.90;;;2.30;;
13197;SDS011;6664;52.514;13.440;2022-07-29T01:13:13;9.77;;;2.57;;
13197;SDS011;6664;52.514;13.440;2022-07-29T01:15:43;4.80;;;3.10;;
13197;SDS011;6664;52.514;13.440;2022-07-29T01:18:27;2.87;;;2.60;;
13197;SDS011;6664;52.514;13.440;2022-07-29T01:34:34;6.17;;;2.73;;
13197;SDS011;6664;52.514;13.440;2022-07-29T01:37:11;5.00;;;2.53;;
13197;SDS011;6664;52.514;13.440;2022-07-29T01:39:48;7.37;;;2.80;;
13197;SDS011;6664;52.514;13.440;2022-07-29T01:45:10;3.97;;;2.53;;
13197;SDS011;6664;52.514;13.440;2022-07-29T01:48:03;3.00;;;2.70;;
13197;SDS011;6664;52.514;13.440;2022-07-29T01:50:38;3.40;;;2.53;;
13197;SDS011;6664;52.514;13.440;2022-07-29T01:53:26;3.73;;;2.10;;
13197;SDS011;6664;52.514;13.440;2022-07-29T01:56:03;3.57;;;2.67;;
13197;SDS011;6664;52.514;13.440;2022-07-29T01:58:32;6.23;;;2.30;;
13197;SDS011;6664;52.514;13.440;2022-07-29T02:01:02;4.23;;;2.30;;
13197;SDS011;6664;52.514;13.440;2022-07-29T02:03:31;5.70;;;2.13;;
13197;SDS011;6664;52.514;13.440;2022-07-29T02:06:01;4.47;;;2.67;;
13197;SDS011;6664;52.514;13.440;2022-07-29T02:08:30;11.10;;;2.33;;
13197;SDS011;6664;52.514;13.440;2022-07-29T02:11:02;2.90;;;2.43;;
13197;SDS011;6664;52.514;13.440;2022-07-29T02:13:30;2.47;;;1.83;;
13197;SDS011;6664;52.514;13.440;2022-07-29T02:15:58;3.27;;;2.20;;
13197;SDS011;6664;52.514;13.440;2022-07-29T02:18:27;4.10;;;2.70;;
13197;SDS011;6664;52.514;13.440;2022-07-29T02:20:56;2.83;;;2.37;;
13197;SDS011;6664;52.514;13.440;2022-07-29T02:23:25;3.37;;;2.20;;
13197;SDS011;6664;52.514;13.440;2022-07-29T02:26:15;6.43;;;2.13;;
13197;SDS011;6664;52.514;13.440;2022-07-29T02:28:46;5.43;;;2.50;;
13197;SDS011;6664;52.514;13.440;2022-07-29T02:31:15;4.93;;;2.30;;
13197;SDS011;6664;52.514;13.440;2022-07-29T02:33:49;3.47;;;2.20;;
13197;SDS011;6664;52.514;13.440;2022-07-29T02:36:18;2.50;;;2.30;;
13197;SDS011;6664;52.514;13.440;2022-07-29T02:38:53;4.70;;;2.00;;
13197;SDS011;6664;52.514;13.440;2022-07-29T02:41:26;2.57;;;2.30;;
13197;SDS011;6664;52.514;13.440;2022-07-29T02:44:02;3.23;;;2.43;;
13197;SDS011;6664;52.514;13.440;2022-07-29T02:46:33;3.93;;;2.50;;
13197;SDS011;6664;52.514;13.440;2022-07-29T02:49:10;3.27;;;2.10;;
13197;SDS011;6664;52.514;13.440;2022-07-29T02:51:44;3.20;;;2.30;;
13197;SDS011;6664;52.514;13.440;2022-07-29T02:54:18;6.50;;;2.10;;
13197;SDS011;6664;52.514;13.440;2022-07-29T02:57:11;8.37;;;2.37;;
13197;SDS011;6664;52.514;13.440;2022-07-29T02:59:48;2.50;;;2.30;;
13197;SDS011;6664;52.514;13.440;2022-07-29T03:02:18;5.00;;;2.30;;
13197;SDS011;6664;52.514;13.440;2022-07-29T03:04:51;2.50;;;2.30;;
13197;SDS011;6664;52.514;13.440;2022-07-29T03:07:20;2.03;;;1.93;;
13197;SDS011;6664;52.514;13.440;2022-07-29T03:09:48;2.60;;;1.90;;
13197;SDS011;6664;52.514;13.440;2022-07-29T03:12:16;2.17;;;1.93;;
13197;SDS011;6664;52.514;13.440;2022-07-29T03:14:45;2.33;;;2.13;;
13197;SDS011;6664;52.514;13.440;2022-07-29T03:17:15;6.57;;;2.30;;
13197;SDS011;6664;52.514;13.440;2022-07-29T03:19:42;3.07;;;1.90;;
13197;SDS011;6664;52.514;13.440;2022-07-29T03:22:10;7.97;;;2.40;;
13197;SDS011;6664;52.514;13.440;2022-07-29T03:24:38;3.13;;;1.83;;
13197;SDS011;6664;52.514;13.440;2022-07-29T03:27:05;3.27;;;2.00;;
13197;SDS011;6664;52.514;13.440;2022-07-29T03:29:31;6.83;;;2.60;;
13197;SDS011;6664;52.514;13.440;2022-07-29T03:32:00;4.40;;;2.17;;
13197;SDS011;6664;52.514;13.440;2022-07-29T03:34:33;3.30;;;2.27;;
13197;SDS011;6664;52.514;13.440;2022-07-29T03:37:00;2.80;;;2.40;;
13197;SDS011;6664;52.514;13.440;2022-07-29T03:39:27;2.10;;;1.50;;
13197;SDS011;6664;52.514;13.440;2022-07-29T03:41:58;2.00;;;1.77;;
13197;SDS011;6664;52.514;13.440;2022-07-29T03:44:27;2.20;;;2.00;;
13197;SDS011;6664;52.514;13.440;2022-07-29T03:46:55;7.43;;;2.50;;
13197;SDS011;6664;52.514;13.440;2022-07-29T03:49:26;2.10;;;1.93;;
13197;SDS011;6664;52.514;13.440;2022-07-29T03:51:54;5.30;;;2.10;;
13197;SDS011;6664;52.514;13.440;2022-07-29T03:54:21;2.77;;;1.63;;
13197;SDS011;6664;52.514;13.440;2022-07-29T03:56:48;2.10;;;1.90;;
13197;SDS011;6664;52.514;13.440;2022-07-29T03:59:19;2.73;;;2.00;;
13197;SDS011;6664;52.514;13.440;2022-07-29T04:01:50;4.10;;;2.93;;
13197;SDS011;6664;52.514;13.440;2022-07-29T04:04:17;3.97;;;1.83;;
13197;SDS011;6664;52.514;13.440;2022-07-29T04:06:45;3.37;;;2.47;;
13197;SDS011;6664;52.514;13.440;2022-07-29T04:09:13;4.87;;;1.97;;
13197;SDS011;6664;52.514;13.440;2022-07-29T04:11:41;3.40;;;2.20;;
13197;SDS011;6664;52.514;13.440;2022-07-29T04:14:29;2.40;;;2.20;;
13197;SDS011;6664;52.514;13.440;2022-07-29T04:16:57;3.93;;;2.20;;
13197;SDS011;6664;52.514;13.440;2022-07-29T04:19:24;2.70;;;2.20;;
13197;SDS011;6664;52.514;13.440;2022-07-29T04:21:50;3.40;;;2.00;;
13197;SDS011;6664;52.514;13.440;2022-07-29T04:24:17;3.13;;;2.20;;
13197;SDS011;6664;52.514;13.440;2022-07-29T04:26:46;2.47;;;2.27;;
13197;SDS011;6664;52.514;13.440;2022-07-29T04:29:14;3.73;;;2.40;;
13197;SDS011;6664;52.514;13.440;2022-07-29T04:31:41;3.43;;;2.23;;
13197;SDS011;6664;52.514;13.440;2022-07-29T04:34:09;2.07;;;1.97;;
13197;SDS011;6664;52.514;13.440;2022-07-29T04:36:36;3.93;;;2.80;;
13197;SDS011;6664;52.514;13.440;2022-07-29T04:39:06;2.17;;;2.07;;
13197;SDS011;6664;52.514;13.440;2022-07-29T04:41:33;3.10;;;2.00;;
13197;SDS011;6664;52.514;13.440;2022-07-29T04:44:02;12.13;;;2.40;;
13197;SDS011;6664;52.514;13.440;2022-07-29T04:46:32;3.33;;;2.00;;
13197;SDS011;6664;52.514;13.440;2022-07-29T04:49:00;2.97;;;1.70;;
13197;SDS011;6664;52.514;13.440;2022-07-29T04:51:31;4.23;;;2.23;;
13197;SDS011;6664;52.514;13.440;2022-07-29T04:53:58;3.23;;;2.17;;
13197;SDS011;6664;52.514;13.440;2022-07-29T04:56:25;3.57;;;1.90;;
13197;SDS011;6664;52.514;13.440;2022-07-29T04:58:52;2.10;;;1.90;;
13197;SDS011;6664;52.514;13.440;2022-07-29T05:01:19;5.13;;;1.90;;
13197;SDS011;6664;52.514;13.440;2022-07-29T05:03:49;3.53;;;2.03;;
13197;SDS011;6664;52.514;13.440;2022-07-29T05:06:18;2.03;;;1.70;;
13197;SDS011;6664;52.514;13.440;2022-07-29T05:08:45;2.63;;;2.33;;
13197;SDS011;6664;52.514;13.440;2022-07-29T05:11:14;3.00;;;2.33;;
13197;SDS011;6664;52.514;13.440;2022-07-29T05:13:47;3.53;;;2.03;;
13197;SDS011;6664;52.514;13.440;2022-07-29T05:16:17;2.37;;;1.93;;
13197;SDS011;6664;52.514;13.440;2022-07-29T05:18:44;1.83;;;1.70;;
13197;SDS011;6664;52.514;13.440;2022-07-29T05:21:13;2.70;;;2.00;;
13197;SDS011;6664;52.514;13.440;2022-07-29T05:23:43;9.70;;;2.17;;
13197;SDS011;6664;52.514;13.440;2022-07-29T05:26:12;2.67;;;2.03;;
13197;SDS011;6664;52.514;13.440;2022-07-29T05:28:39;1.67;;;1.57;;
13197;SDS011;6664;52.514;13.440;2022-07-29T05:31:09;3.40;;;1.70;;
13197;SDS011;6664;52.514;13.440;2022-07-29T05:33:36;3.80;;;2.00;;
13197;SDS011;6664;52.514;13.440;2022-07-29T05:36:04;2.30;;;1.70;;
13197;SDS011;6664;52.514;13.440;2022-07-29T05:38:35;7.23;;;2.00;;
13197;SDS011;6664;52.514;13.440;2022-07-29T05:41:03;6.87;;;2.20;;
13197;SDS011;6664;52.514;13.440;2022-07-29T05:43:31;2.20;;;1.70;;
13197;SDS011;6664;52.514;13.440;2022-07-29T05:45:58;4.20;;;2.33;;
13197;SDS011;6664;52.514;13.440;2022-07-29T05:48:25;3.00;;;2.17;;
13197;SDS011;6664;52.514;13.440;2022-07-29T05:50:52;2.83;;;2.00;;
13197;SDS011;6664;52.514;13.440;2022-07-29T05:53:19;4.80;;;1.97;;
13197;SDS011;6664;52.514;13.440;2022-07-29T05:55:50;5.07;;;2.00;;
13197;SDS011;6664;52.514;13.440;2022-07-29T05:58:18;5.00;;;1.93;;
13197;SDS011;6664;52.514;13.440;2022-07-29T06:00:45;3.30;;;1.93;;
13197;SDS011;6664;52.514;13.440;2022-07-29T06:03:12;4.23;;;1.87;;
13197;SDS011;6664;52.514;13.440;2022-07-29T06:05:39;5.10;;;2.20;;
13197;SDS011;6664;52.514;13.440;2022-07-29T06:08:08;1.93;;;1.83;;
13197;SDS011;6664;52.514;13.440;2022-07-29T06:10:35;2.67;;;1.90;;
13197;SDS011;6664;52.514;13.440;2022-07-29T06:13:02;4.63;;;2.50;;
13197;SDS011;6664;52.514;13.440;2022-07-29T06:15:29;2.10;;;1.90;;
13197;SDS011;6664;52.514;13.440;2022-07-29T06:17:56;2.97;;;1.93;;
13197;SDS011;6664;52.514;13.440;2022-07-29T06:20:26;2.90;;;1.80;;
13197;SDS011;6664;52.514;13.440;2022-07-29T06:22:57;6.33;;;1.83;;
13197;SDS011;6664;52.514;13.440;2022-07-29T06:25:25;2.20;;;2.00;;
13197;SDS011;6664;52.514;13.440;2022-07-29T06:27:55;2.23;;;1.60;;
13197;SDS011;6664;52.514;13.440;2022-07-29T06:30:22;4.73;;;1.90;;
13197;SDS011;6664;52.514;13.440;2022-07-29T06:32:50;6.57;;;1.70;;
13197;SDS011;6664;52.514;13.440;2022-07-29T06:35:17;7.03;;;1.50;;
13197;SDS011;6664;52.514;13.440;2022-07-29T06:38:06;3.40;;;2.30;;
13197;SDS011;6664;52.514;13.440;2022-07-29T06:40:53;2.97;;;1.73;;
13197;SDS011;6664;52.514;13.440;2022-07-29T06:43:36;2.83;;;1.73;;
13197;SDS011;6664;52.514;13.440;2022-07-29T06:46:19;2.50;;;2.30;;
13197;SDS011;6664;52.514;13.440;2022-07-29T06:48:47;2.70;;;1.77;;
13197;SDS011;6664;52.514;13.440;2022-07-29T06:51:15;7.80;;;1.73;;
13197;SDS011;6664;52.514;13.440;2022-07-29T06:53:48;4.17;;;2.30;;
13197;SDS011;6664;52.514;13.440;2022-07-29T06:56:37;5.63;;;1.70;;
13197;SDS011;6664;52.514;13.440;2022-07-29T06:59:08;2.20;;;1.93;;
13197;SDS011;6664;52.514;13.440;2022-07-29T07:01:36;6.10;;;2.17;;
13197;SDS011;6664;52.514;13.440;2022-07-29T07:04:04;4.73;;;2.17;;
13197;SDS011;6664;52.514;13.440;2022-07-29T07:06:31;2.53;;;1.60;;
13197;SDS011;6664;52.514;13.440;2022-07-29T07:08:58;3.23;;;2.23;;
13197;SDS011;6664;52.514;13.440;2022-07-29T07:11:25;5.07;;;2.13;;
13197;SDS011;6664;52.514;13.440;2022-07-29T07:13:52;3.07;;;2.00;;
13197;SDS011;6664;52.514;13.440;2022-07-29T07:16:28;7.13;;;1.70;;
13197;SDS011;6664;52.514;13.440;2022-07-29T07:18:55;2.40;;;1.60;;
13197;SDS011;6664;52.514;13.440;2022-07-29T07:21:22;1.97;;;1.70;;
13197;SDS011;6664;52.514;13.440;2022-07-29T07:23:49;1.90;;;1.77;;
13197;SDS011;6664;52.514;13.440;2022-07-29T07:26:16;5.03;;;1.70;;
13197;SDS011;6664;52.514;13.440;2022-07-29T07:28:45;2.83;;;1.70;;
13197;SDS011;6664;52.514;13.440;2022-07-29T07:31:12;2.30;;;1.67;;
13197;SDS011;6664;52.514;13.440;2022-07-29T07:33:41;6.43;;;1.77;;
13197;SDS011;6664;52.514;13.440;2022-07-29T07:36:08;3.53;;;1.47;;
13197;SDS011;6664;52.514;13.440;2022-07-29T07:38:35;3.70;;;1.77;;
13197;SDS011;6664;52.514;13.440;2022-07-29T07:41:04;3.53;;;1.80;;
13197;SDS011;6664;52.514;13.440;2022-07-29T07:43:31;4.27;;;1.53;;
13197;SDS011;6664;52.514;13.440;2022-07-29T07:45:58;3.03;;;1.33;;
13197;SDS011;6664;52.514;13.440;2022-07-29T07:48:25;2.13;;;1.60;;
13197;SDS011;6664;52.514;13.440;2022-07-29T07:50:54;3.57;;;1.80;;
13197;SDS011;6664;52.514;13.440;2022-07-29T07:53:24;2.40;;;1.30;;
13197;SDS011;6664;52.514;13.440;2022-07-29T07:55:50;4.23;;;1.83;;
13197;SDS011;6664;52.514;13.440;2022-07-29T07:58:37;2.60;;;1.50;;
13197;SDS011;6664;52.514;13.440;2022-07-29T08:01:05;4.77;;;1.97;;
13197;SDS011;6664;52.514;13.440;2022-07-29T08:03:35;1.30;;;1.20;;
13197;SDS011;6664;52.514;13.440;2022-07-29T08:06:02;2.27;;;1.40;;
13197;SDS011;6664;52.514;13.440;2022-07-29T08:08:30;2.83;;;1.70;;
13197;SDS011;6664;52.514;13.440;2022-07-29T08:10:59;4.63;;;1.90;;
13197;SDS011;6664;52.514;13.440;2022-07-29T08:13:36;2.30;;;1.40;;
13197;SDS011;6664;52.514;13.440;2022-07-29T08:16:04;4.30;;;1.77;;
13197;SDS011;6664;52.514;13.440;2022-07-29T08:18:39;2.87;;;1.77;;
13197;SDS011;6664;52.514;13.440;2022-07-29T08:21:07;3.30;;;1.50;;
13197;SDS011;6664;52.514;13.440;2022-07-29T08:23:41;4.17;;;1.37;;
13197;SDS011;6664;52.514;13.440;2022-07-29T08:26:19;3.13;;;1.30;;
13197;SDS011;6664;52.514;13.440;2022-07-29T08:28:49;2.53;;;1.40;;
13197;SDS011;6664;52.514;13.440;2022-07-29T08:31:17;2.23;;;1.60;;
13197;SDS011;6664;52.514;13.440;2022-07-29T08:33:44;1.30;;;1.20;;
13197;SDS011;6664;52.514;13.440;2022-07-29T08:36:11;3.47;;;1.37;;
13197;SDS011;6664;52.514;13.440;2022-07-29T08:38:39;3.13;;;1.73;;
13197;SDS011;6664;52.514;13.440;2022-07-29T08:41:06;3.37;;;1.83;;
13197;SDS011;6664;52.514;13.440;2022-07-29T08:43:33;2.23;;;1.60;;
13197;SDS011;6664;52.514;13.440;2022-07-29T08:46:03;1.73;;;1.63;;
13197;SDS011;6664;52.514;13.440;2022-07-29T08:48:30;1.60;;;1.50;;
13197;SDS011;6664;52.514;13.440;2022-07-29T08:50:58;3.33;;;1.60;;
13197;SDS011;6664;52.514;13.440;2022-07-29T08:53:27;3.27;;;1.53;;
13197;SDS011;6664;52.514;13.440;2022-07-29T08:55:57;1.60;;;1.30;;
13197;SDS011;6664;52.514;13.440;2022-07-29T08:58:25;1.40;;;1.30;;
13197;SDS011;6664;52.514;13.440;2022-07-29T09:00:55;2.27;;;1.80;;
13197;SDS011;6664;52.514;13.440;2022-07-29T09:03:31;1.30;;;1.10;;
13197;SDS011;6664;52.514;13.440;2022-07-29T09:06:03;2.67;;;1.33;;
13197;SDS011;6664;52.514;13.440;2022-07-29T09:08:30;1.60;;;1.50;;
13197;SDS011;6664;52.514;13.440;2022-07-29T09:11:00;2.27;;;1.30;;
13197;SDS011;6664;52.514;13.440;2022-07-29T09:13:30;2.20;;;1.67;;
13197;SDS011;6664;52.514;13.440;2022-07-29T09:15:57;4.07;;;1.27;;
13197;SDS011;6664;52.514;13.440;2022-07-29T09:18:39;2.10;;;1.40;;
13197;SDS011;6664;52.514;13.440;2022-07-29T09:21:11;6.63;;;1.40;;
13197;SDS011;6664;52.514;13.440;2022-07-29T09:24:13;1.50;;;1.40;;
13197;SDS011;6664;52.514;13.440;2022-07-29T09:26:41;3.63;;;1.60;;
13197;SDS011;6664;52.514;13.440;2022-07-29T09:29:12;4.17;;;1.60;;
13197;SDS011;6664;52.514;13.440;2022-07-29T09:31:50;4.23;;;1.60;;
13197;SDS011;6664;52.514;13.440;2022-07-29T09:36:51;1.30;;;1.20;;
13197;SDS011;6664;52.514;13.440;2022-07-29T09:39:27;1.37;;;1.27;;
13197;SDS011;6664;52.514;13.440;2022-07-29T09:41:55;1.60;;;1.50;;
13197;SDS011;6664;52.514;13.440;2022-07-29T09:44:23;4.13;;;1.30;;
13197;SDS011;6664;52.514;13.440;2022-07-29T09:49:28;4.33;;;1.30;;
13197;SDS011;6664;52.514;13.440;2022-07-29T09:52:13;1.90;;;1.43;;
13197;SDS011;6664;52.514;13.440;2022-07-29T09:54:43;10.03;;;1.90;;
13197;SDS011;6664;52.514;13.440;2022-07-29T09:57:21;2.30;;;1.53;;
13197;SDS011;6664;52.514;13.440;2022-07-29T10:02:32;1.40;;;1.30;;
13197;SDS011;6664;52.514;13.440;2022-07-29T10:05:01;2.10;;;1.50;;
13197;SDS011;6664;52.514;13.440;2022-07-29T10:07:54;4.00;;;1.53;;
13197;SDS011;6664;52.514;13.440;2022-07-29T10:10:25;3.43;;;1.53;;
13197;SDS011;6664;52.514;13.440;2022-07-29T10:12:55;1.57;;;1.20;;
13197;SDS011;6664;52.514;13.440;2022-07-29T10:15:35;3.83;;;1.10;;
13197;SDS011;6664;52.514;13.440;2022-07-29T10:18:07;2.60;;;1.30;;
13197;SDS011;6664;52.514;13.440;2022-07-29T10:20:34;3.83;;;1.40;;
13197;SDS011;6664;52.514;13.440;2022-07-29T10:23:02;1.33;;;1.00;;
13197;SDS011;6664;52.514;13.440;2022-07-29T10:25:30;6.63;;;1.30;;
13197;SDS011;6664;52.514;13.440;2022-07-29T10:27:59;1.43;;;1.00;;
13197;SDS011;6664;52.514;13.440;2022-07-29T10:30:28;2.37;;;1.30;;
13197;SDS011;6664;52.514;13.440;2022-07-29T10:42:25;2.07;;;1.23;;
13197;SDS011;6664;52.514;13.440;2022-07-29T10:45:00;2.83;;;0.93;;
13197;SDS011;6664;52.514;13.440;2022-07-29T10:47:30;1.27;;;1.17;;
13197;SDS011;6664;52.514;13.440;2022-07-29T10:49:59;2.83;;;1.47;;
13197;SDS011;6664;52.514;13.440;2022-07-29T10:55:39;1.20;;;1.10;;
13197;SDS011;6664;52.514;13.440;2022-07-29T11:00:50;1.97;;;1.40;;
13197;SDS011;6664;52.514;13.440;2022-07-29T11:06:17;1.73;;;0.90;;
13197;SDS011;6664;52.514;13.440;2022-07-29T11:11:45;2.80;;;1.53;;
13197;SDS011;6664;52.514;13.440;2022-07-29T11:14:17;1.90;;;1.40;;
13197;SDS011;6664;52.514;13.440;2022-07-29T11:17:05;1.23;;;1.13;;
13197;SDS011;6664;52.514;13.440;2022-07-29T11:19:34;1.13;;;1.13;;
13197;SDS011;6664;52.514;13.440;2022-07-29T11:22:07;1.60;;;1.40;;
13197;SDS011;6664;52.514;13.440;2022-07-29T11:24:41;1.40;;;1.30;;
13197;SDS011;6664;52.514;13.440;2022-07-29T11:27:16;2.20;;;1.20;;
13197;SDS011;6664;52.514;13.440;2022-07-29T11:29:50;1.97;;;1.40;;
13197;SDS011;6664;52.514;13.440;2022-07-29T11:32:21;1.40;;;1.30;;
13197;SDS011;6664;52.514;13.440;2022-07-29T11:34:50;1.90;;;1.50;;
13197;SDS011;6664;52.514;13.440;2022-07-29T11:38:26;11.03;;;1.67;;
13197;SDS011;6664;52.514;13.440;2022-07-29T11:41:40;3.70;;;1.40;;
13197;SDS011;6664;52.514;13.440;2022-07-29T11:43:53;2.60;;;2.23;;
13197;SDS011;6664;52.514;13.440;2022-07-29T11:49:21;4.10;;;1.47;;
13197;SDS011;6664;52.514;13.440;2022-07-29T11:52:00;3.03;;;1.50;;
13197;SDS011;6664;52.514;13.440;2022-07-29T11:54:33;2.70;;;1.53;;
13197;SDS011;6664;52.514;13.440;2022-07-29T11:57:23;4.67;;;1.73;;
13197;SDS011;6664;52.514;13.440;2022-07-29T12:00:03;1.60;;;1.30;;
13197;SDS011;6664;52.514;13.440;2022-07-29T12:02:53;2.13;;;1.50;;
13197;SDS011;6664;52.514;13.440;2022-07-29T12:05:44;3.67;;;2.10;;
13197;SDS011;6664;52.514;13.440;2022-07-29T12:08:23;1.80;;;1.70;;
13197;SDS011;6664;52.514;13.440;2022-07-29T12:10:52;1.80;;;1.63;;
13197;SDS011;6664;52.514;13.440;2022-07-29T12:13:20;1.63;;;1.30;;
13197;SDS011;6664;52.514;13.440;2022-07-29T12:16:02;3.80;;;1.90;;
13197;SDS011;6664;52.514;13.440;2022-07-29T12:18:30;2.57;;;1.57;;
13197;SDS011;6664;52.514;13.440;2022-07-29T12:20:58;2.70;;;1.60;;
13197;SDS011;6664;52.514;13.440;2022-07-29T12:23:28;2.73;;;1.77;;
13197;SDS011;6664;52.514;13.440;2022-07-29T12:26:00;1.90;;;1.80;;
13197;SDS011;6664;52.514;13.440;2022-07-29T12:28:38;2.10;;;1.90;;
13197;SDS011;6664;52.514;13.440;2022-07-29T12:31:05;6.20;;;2.23;;
13197;SDS011;6664;52.514;13.440;2022-07-29T12:33:39;2.50;;;1.80;;
13197;SDS011;6664;52.514;13.440;2022-07-29T12:36:06;4.20;;;1.57;;
13197;SDS011;6664;52.514;13.440;2022-07-29T12:38:42;3.80;;;2.00;;
13197;SDS011;6664;52.514;13.440;2022-07-29T12:41:12;1.97;;;1.70;;
13197;SDS011;6664;52.514;13.440;2022-07-29T12:43:47;1.80;;;1.70;;
13197;SDS011;6664;52.514;13.440;2022-07-29T12:46:19;1.80;;;1.70;;
13197;SDS011;6664;52.514;13.440;2022-07-29T12:48:49;6.50;;;2.00;;
13197;SDS011;6664;52.514;13.440;2022-07-29T12:51:31;1.57;;;1.47;;
13197;SDS011;6664;52.514;13.440;2022-07-29T12:54:09;1.13;;;1.02;;
13197;SDS011;6664;52.514;13.440;2022-07-29T12:56:39;1.10;;;1.00;;
13197;SDS011;6664;52.514;13.440;2022-07-29T12:59:17;4.00;;;1.40;;
13197;SDS011;6664;52.514;13.440;2022-07-29T13:01:46;3.03;;;1.10;;
13197;SDS011;6664;52.514;13.440;2022-07-29T13:07:05;2.25;;;1.38;;
13197;SDS011;6664;52.514;13.440;2022-07-29T13:09:42;1.42;;;1.15;;
13197;SDS011;6664;52.514;13.440;2022-07-29T13:12:12;1.00;;;0.90;;
13197;SDS011;6664;52.514;13.440;2022-07-29T13:14:43;1.05;;;1.00;;
13197;SDS011;6664;52.514;13.440;2022-07-29T13:17:21;1.50;;;1.00;;
13197;SDS011;6664;52.514;13.440;2022-07-29T13:19:50;1.00;;;0.90;;
13197;SDS011;6664;52.514;13.440;2022-07-29T13:22:21;1.13;;;1.02;;
13197;SDS011;6664;52.514;13.440;2022-07-29T13:25:00;1.25;;;1.20;;
13197;SDS011;6664;52.514;13.440;2022-07-29T13:27:31;1.40;;;1.10;;
13197;SDS011;6664;52.514;13.440;2022-07-29T13:30:05;1.60;;;1.05;;
13197;SDS011;6664;52.514;13.440;2022-07-29T13:32:37;1.00;;;1.00;;
13197;SDS011;6664;52.514;13.440;2022-07-29T13:35:04;1.48;;;0.90;;
13197;SDS011;6664;52.514;13.440;2022-07-29T13:37:34;0.70;;;0.70;;
13197;SDS011;6664;52.514;13.440;2022-07-29T13:40:05;1.63;;;1.05;;
13197;SDS011;6664;52.514;13.440;2022-07-29T13:42:38;1.10;;;1.10;;
13197;SDS011;6664;52.514;13.440;2022-07-29T13:45:05;1.15;;;1.10;;
13197;SDS011;6664;52.514;13.440;2022-07-29T13:47:33;1.10;;;1.10;;
13197;SDS011;6664;52.514;13.440;2022-07-29T13:50:00;0.90;;;0.90;;
13197;SDS011;6664;52.514;13.440;2022-07-29T13:52:28;1.00;;;1.00;;
13197;SDS011;6664;52.514;13.440;2022-07-29T13:54:55;1.08;;;1.08;;
13197;SDS011;6664;52.514;13.440;2022-07-29T13:57:22;0.90;;;0.90;;
13197;SDS011;6664;52.514;13.440;2022-07-29T13:59:49;2.67;;;1.13;;
13197;SDS011;6664;52.514;13.440;2022-07-29T14:02:22;0.98;;;0.98;;
13197;SDS011;6664;52.514;13.440;2022-07-29T14:04:51;1.75;;;1.00;;
13197;SDS011;6664;52.514;13.440;2022-07-29T14:07:20;1.48;;;1.35;;
13197;SDS011;6664;52.514;13.440;2022-07-29T14:09:50;1.88;;;1.20;;
13197;SDS011;6664;52.514;13.440;2022-07-29T14:12:19;1.25;;;0.80;;
13197;SDS011;6664;52.514;13.440;2022-07-29T14:14:47;1.10;;;1.10;;
13197;SDS011;6664;52.514;13.440;2022-07-29T14:17:16;2.35;;;1.00;;
13197;SDS011;6664;52.514;13.440;2022-07-29T14:19:43;0.95;;;0.95;;
13197;SDS011;6664;52.514;13.440;2022-07-29T14:22:10;1.10;;;1.00;;
13197;SDS011;6664;52.514;13.440;2022-07-29T14:24:37;3.75;;;1.33;;
13197;SDS011;6664;52.514;13.440;2022-07-29T14:27:08;3.20;;;1.08;;
13197;SDS011;6664;52.514;13.440;2022-07-29T14:29:34;1.83;;;0.95;;
13197;SDS011;6664;52.514;13.440;2022-07-29T14:32:07;0.80;;;0.80;;
13197;SDS011;6664;52.514;13.440;2022-07-29T14:34:36;1.10;;;1.10;;
13197;SDS011;6664;52.514;13.440;2022-07-29T14:37:04;2.00;;;1.20;;
13197;SDS011;6664;52.514;13.440;2022-07-29T14:39:35;0.80;;;0.80;;
13197;SDS011;6664;52.514;13.440;2022-07-29T14:42:09;1.25;;;1.15;;
13197;SDS011;6664;52.514;13.440;2022-07-29T14:44:39;1.05;;;1.05;;
13197;SDS011;6664;52.514;13.440;2022-07-29T14:47:07;1.17;;;1.17;;
13197;SDS011;6664;52.514;13.440;2022-07-29T14:49:35;2.25;;;1.35;;
13197;SDS011;6664;52.514;13.440;2022-07-29T14:52:02;4.03;;;1.27;;
13197;SDS011;6664;52.514;13.440;2022-07-29T14:54:29;3.10;;;1.50;;
13197;SDS011;6664;52.514;13.440;2022-07-29T14:56:58;3.13;;;1.35;;
13197;SDS011;6664;52.514;13.440;2022-07-29T14:59:25;1.70;;;1.55;;
13197;SDS011;6664;52.514;13.440;2022-07-29T15:01:52;2.20;;;1.67;;
13197;SDS011;6664;52.514;13.440;2022-07-29T15:04:19;1.60;;;1.50;;
13197;SDS011;6664;52.514;13.440;2022-07-29T15:06:49;1.73;;;1.63;;
13197;SDS011;6664;52.514;13.440;2022-07-29T15:09:18;1.50;;;1.40;;
13197;SDS011;6664;52.514;13.440;2022-07-29T15:11:47;1.65;;;1.27;;
13197;SDS011;6664;52.514;13.440;2022-07-29T15:14:17;2.00;;;1.90;;
13197;SDS011;6664;52.514;13.440;2022-07-29T15:16:43;2.13;;;1.67;;
13197;SDS011;6664;52.514;13.440;2022-07-29T15:19:13;1.80;;;1.70;;
13197;SDS011;6664;52.514;13.440;2022-07-29T15:21:40;2.47;;;1.77;;
13197;SDS011;6664;52.514;13.440;2022-07-29T15:24:17;1.70;;;1.60;;
13197;SDS011;6664;52.514;13.440;2022-07-29T15:26:49;3.70;;;2.10;;
13197;SDS011;6664;52.514;13.440;2022-07-29T15:29:16;4.10;;;1.83;;
13197;SDS011;6664;52.514;13.440;2022-07-29T15:31:43;3.80;;;1.87;;
13197;SDS011;6664;52.514;13.440;2022-07-29T15:34:12;3.07;;;2.00;;
13197;SDS011;6664;52.514;13.440;2022-07-29T15:36:42;2.60;;;1.70;;
13197;SDS011;6664;52.514;13.440;2022-07-29T15:39:18;1.70;;;1.60;;
13197;SDS011;6664;52.514;13.440;2022-07-29T15:41:46;2.43;;;2.00;;
13197;SDS011;6664;52.514;13.440;2022-07-29T15:44:13;1.90;;;1.63;;
13197;SDS011;6664;52.514;13.440;2022-07-29T15:46:42;1.87;;;1.50;;
13197;SDS011;6664;52.514;13.440;2022-07-29T15:49:32;1.93;;;1.50;;
13197;SDS011;6664;52.514;13.440;2022-07-29T15:52:14;1.57;;;1.47;;
13197;SDS011;6664;52.514;13.440;2022-07-29T15:54:51;5.43;;;1.30;;
13197;SDS011;6664;52.514;13.440;2022-07-29T15:57:19;2.23;;;1.47;;
13197;SDS011;6664;52.514;13.440;2022-07-29T15:59:46;2.03;;;1.60;;
13197;SDS011;6664;52.514;13.440;2022-07-29T16:02:15;2.53;;;1.30;;